Sesser, Illinois
Current Conditions -  °F | °C
As of 8:15 AM on Wednesday 28 Jan 2015 (Local Time) from KMVN Reporting Station
Clear Clear  
Wind Chill: 28°   Ceiling: Unl
Heat Index: 28°   Visibility: 9mi
Dew Point: 23°   Wind: 3mph
Humidity: 80%   Direction: 140°SE
Pressure: 30.31"   Gusts: NA
Location:  38.09°N, 89.05°W
Report Text: KMVN 281415Z AUTO 14003KT 9SM CLR M02/M05 A3031 RMK AO1
Loading
Personal Weather Stations






























Interactive Weather Map New forecast layout! Learn more

10-Day Weather Forecast

Advertisements
Track Severe Weather on mobile